createdAt,value
2018-04-13T05:04:12.595Z,41.57
2018-04-13T05:06:38.549Z,42.73
2018-04-13T05:09:05.599Z,42.77
2018-04-13T05:11:31.665Z,47.20
2018-04-13T05:13:57.744Z,43.17
2018-04-13T05:16:23.887Z,42.10
2018-04-13T05:18:50.649Z,46.40
2018-04-13T05:21:16.730Z,41.50
2018-04-13T05:23:43.512Z,44.73
2018-04-13T05:26:09.502Z,42.27
2018-04-13T05:28:36.239Z,38.57
2018-04-13T05:31:03.054Z,39.60
2018-04-13T05:33:29.063Z,39.53
2018-04-13T05:35:55.107Z,40.37
2018-04-13T05:38:21.857Z,37.33
2018-04-13T05:40:47.973Z,39.07
2018-04-13T05:43:16.697Z,38.47
2018-04-13T05:45:43.359Z,41.13
2018-04-13T05:48:09.355Z,35.20
2018-04-13T05:50:35.423Z,35.63
2018-04-13T05:53:01.530Z,31.87
2018-04-13T05:55:27.560Z,37.17
2018-04-13T05:57:53.657Z,37.60
2018-04-13T06:00:19.697Z,34.20
2018-04-13T06:02:45.838Z,33.37
2018-04-13T06:05:12.560Z,37.13
2018-04-13T06:07:38.695Z,38.40
2018-04-13T06:10:04.853Z,35.40
2018-04-13T06:12:30.872Z,34.63
2018-04-13T06:14:56.906Z,31.67
2018-04-13T06:17:22.952Z,29.73
2018-04-13T06:19:48.986Z,28.07
2018-04-13T06:22:15.850Z,24.83
2018-04-13T06:24:41.871Z,25.03
2018-04-13T06:27:07.989Z,27.63
2018-04-13T06:29:34.816Z,26.53
2018-04-13T06:32:00.837Z,28.43
2018-04-13T06:34:27.583Z,27.67
2018-04-13T06:36:55.123Z,30.63
2018-04-13T06:39:21.239Z,35.83
2018-04-13T06:41:47.235Z,33.37
2018-04-13T06:44:14.095Z,36.97
2018-04-13T06:46:40.108Z,34.87
2018-04-13T06:49:06.238Z,39.23
2018-04-13T06:51:33.005Z,38.37
2018-04-13T06:53:59.052Z,40.63
2018-04-13T06:56:25.054Z,42.27
2018-04-13T06:58:51.843Z,54.37
2018-04-13T07:01:17.951Z,50.33
2018-04-13T07:03:43.993Z,50.47
2018-04-13T07:06:10.168Z,58.87
2018-04-13T07:08:36.192Z,55.23
2018-04-13T07:11:02.283Z,55.60
2018-04-13T07:13:29.160Z,51.30
2018-04-13T07:15:56.308Z,55.17
2018-04-13T07:18:26.009Z,53.80
2018-04-13T07:20:52.092Z,53.53
2018-04-13T07:23:19.499Z,46.47
2018-04-13T07:25:45.516Z,52.93
2018-04-13T07:28:11.555Z,50.90
2018-04-13T07:30:37.669Z,49.30
2018-04-13T07:33:03.693Z,49.23
2018-04-13T07:35:29.675Z,49.03
2018-04-13T07:37:56.437Z,49.90
2018-04-13T07:40:23.495Z,50.70
2018-04-13T07:42:49.638Z,51.43
2018-04-13T07:45:16.327Z,45.93
2018-04-13T07:47:42.321Z,49.33
2018-04-13T07:50:08.436Z,48.30
2018-04-13T07:52:35.253Z,51.77
2018-04-13T07:55:02.542Z,51.27
2018-04-13T07:57:29.294Z,45.20
2018-04-13T07:59:55.381Z,47.57
2018-04-13T08:02:21.383Z,48.30
2018-04-13T08:04:48.118Z,50.93
2018-04-13T08:07:14.896Z,51.67
2018-04-13T08:09:40.949Z,46.00
2018-04-13T08:12:06.949Z,51.27
2018-04-13T08:14:32.932Z,50.50
2018-04-13T08:16:58.927Z,48.40
2018-04-13T08:19:24.994Z,46.80
2018-04-13T08:21:50.993Z,45.17
2018-04-13T08:24:16.990Z,43.67
2018-04-13T08:26:43.736Z,43.83
2018-04-13T08:29:10.506Z,39.93
2018-04-13T08:31:36.553Z,38.17
2018-04-13T08:34:02.582Z,38.40
2018-04-13T08:36:28.521Z,35.67
2018-04-13T08:38:55.314Z,34.43
2018-04-13T08:41:21.343Z,33.63
2018-04-13T08:43:47.344Z,28.80
2018-04-13T08:51:34.528Z,26.03
2018-04-13T08:54:00.499Z,27.10
2018-04-13T09:11:13.628Z,18.10
2018-04-13T09:14:01.337Z,20.03
2018-04-13T09:19:21.326Z,14.13
2018-04-13T09:21:48.114Z,15.13
2018-04-13T09:24:14.197Z,18.08
2018-04-13T09:26:40.284Z,15.33
2018-04-13T09:29:13.050Z,16.03
2018-04-13T09:34:32.110Z,12.20
2018-04-13T09:36:58.162Z,14.63
2018-04-13T09:39:24.253Z,15.73
2018-04-13T09:42:11.064Z,15.60
2018-04-13T09:47:50.239Z,14.60
2018-04-13T09:56:15.547Z,15.13
2018-04-13T10:01:40.559Z,13.67
2018-04-13T10:04:12.623Z,12.97
2018-04-13T10:09:32.790Z,11.80
2018-04-13T10:11:58.847Z,12.77
2018-04-13T10:14:24.926Z,9.93
2018-04-13T10:19:43.483Z,12.77
2018-04-13T10:25:02.768Z,11.57
2018-04-13T10:27:49.029Z,10.70
2018-04-13T10:38:55.052Z,12.17
2018-04-13T10:41:28.075Z,13.27
2018-04-13T10:43:54.204Z,13.70
2018-04-13T10:46:20.297Z,14.23
2018-04-13T10:48:46.352Z,13.20
2018-04-13T10:59:51.632Z,12.07
2018-04-13T11:08:05.016Z,15.80
2018-04-13T11:10:52.948Z,18.20
2018-04-13T11:13:19.672Z,16.93
2018-04-13T11:19:00.900Z,19.07
2018-04-13T11:21:27.265Z,18.17
2018-04-13T11:23:53.339Z,18.00
2018-04-13T11:26:19.375Z,17.33
2018-04-13T11:28:59.288Z,19.40
2018-04-13T11:31:25.348Z,20.57
2018-04-13T11:36:47.987Z,20.60
2018-04-13T11:39:18.106Z,23.43
2018-04-13T11:41:44.951Z,22.23
2018-04-13T11:55:47.796Z,26.90
2018-04-13T12:01:07.145Z,25.83
2018-04-13T12:03:33.213Z,27.57
2018-04-13T12:06:06.648Z,25.97
2018-04-13T12:08:32.687Z,25.27
2018-04-13T12:10:58.733Z,25.10
2018-04-13T12:19:31.514Z,25.60
2018-04-13T12:24:50.497Z,25.97
2018-04-13T12:41:42.436Z,28.33
2018-04-13T12:44:08.509Z,31.13
2018-04-13T12:49:28.688Z,31.50
2018-04-13T12:52:03.243Z,32.57
2018-04-13T12:54:30.136Z,43.37
2018-04-13T12:59:49.019Z,45.20
2018-04-13T13:08:00.868Z,47.37
2018-04-13T13:13:19.970Z,50.67
2018-04-13T13:18:59.544Z,50.73
2018-04-13T13:21:25.632Z,47.83
2018-04-13T13:29:37.971Z,47.53
2018-04-13T13:37:51.811Z,39.33
2018-04-13T14:29:56.983Z,38.43
2018-04-13T15:00:44.952Z,44.37
2018-04-13T15:03:11.736Z,46.00
2018-04-13T15:05:37.746Z,40.27
2018-04-13T15:08:03.800Z,44.87
2018-04-13T15:10:30.370Z,42.03
2018-04-13T15:12:57.157Z,43.27
2018-04-13T15:15:23.743Z,41.47
2018-04-13T15:17:49.780Z,36.17
2018-04-13T15:27:01.006Z,25.00
2018-04-13T15:29:27.175Z,24.83
2018-04-13T15:31:53.971Z,28.23
2018-04-13T15:34:20.091Z,24.50
2018-04-13T15:36:46.120Z,24.10
2018-04-13T15:39:12.186Z,24.37
2018-04-13T15:41:39.021Z,27.80
2018-04-13T15:44:05.825Z,31.00
2018-04-13T15:46:31.986Z,27.47
2018-04-13T15:48:58.740Z,27.60
2018-04-13T15:51:24.799Z,26.23
2018-04-13T15:53:50.815Z,25.80
2018-04-13T15:56:16.879Z,28.33
2018-04-13T15:58:43.669Z,29.93
2018-04-13T16:01:09.699Z,37.00
2018-04-13T16:03:39.446Z,42.23
2018-04-13T16:06:06.250Z,40.37
2018-04-13T16:08:32.313Z,49.40
2018-04-13T16:10:58.429Z,38.87
2018-04-13T16:13:25.207Z,34.97
2018-04-13T16:15:51.284Z,48.23
2018-04-13T16:18:18.092Z,43.67
2018-04-13T16:20:44.180Z,41.33
2018-04-13T16:23:10.202Z,43.57
2018-04-13T16:25:36.191Z,36.37
2018-04-13T16:28:02.913Z,36.03
2018-04-13T16:30:29.752Z,33.77
2018-04-13T16:32:56.516Z,35.10
2018-04-13T16:35:22.539Z,36.97
2018-04-13T16:37:48.729Z,41.90
2018-04-13T16:40:14.838Z,39.37
2018-04-13T16:42:40.855Z,38.63
2018-04-13T16:45:07.083Z,36.37
2018-04-13T16:47:33.827Z,41.67
2018-04-13T16:50:00.627Z,36.10
2018-04-13T16:52:27.351Z,38.67
2018-04-13T16:54:53.395Z,39.10
2018-04-13T16:57:21.327Z,43.60
2018-04-13T16:59:47.369Z,40.90
2018-04-13T17:02:13.361Z,43.23
2018-04-13T17:04:39.435Z,40.50
2018-04-13T17:07:05.462Z,42.30
2018-04-13T17:09:31.477Z,39.03
2018-04-13T17:11:57.496Z,39.83
2018-04-13T17:14:23.530Z,41.47
2018-04-13T17:16:50.347Z,38.77
2018-04-13T17:19:16.341Z,42.40
2018-04-13T17:21:42.388Z,40.70
2018-04-13T17:24:09.724Z,62.93
2018-04-13T17:26:35.783Z,47.97
2018-04-13T17:29:02.607Z,53.30
2018-04-13T17:31:28.631Z,45.20
2018-04-13T17:33:55.414Z,49.70
2018-04-13T17:36:21.409Z,43.50
2018-04-13T17:38:47.418Z,40.13
2018-04-13T17:41:14.224Z,41.00
2018-04-13T17:43:40.334Z,35.60
2018-04-13T17:46:06.421Z,37.07
2018-04-13T17:48:32.469Z,38.23
2018-04-13T17:50:58.536Z,38.77
2018-04-13T17:53:25.499Z,37.83
2018-04-13T17:55:51.589Z,38.27
2018-04-13T17:58:18.404Z,40.80
2018-04-13T18:00:44.561Z,37.53
2018-04-13T18:03:11.340Z,39.63
2018-04-13T18:05:38.402Z,37.60
2018-04-13T18:08:04.461Z,34.93
2018-04-13T18:10:31.302Z,40.00
2018-04-13T18:12:58.138Z,36.83
2018-04-13T18:15:26.269Z,35.70
2018-04-13T18:17:52.344Z,38.37
2018-04-13T18:20:19.143Z,36.30
2018-04-13T18:22:45.128Z,39.57
2018-04-13T18:25:13.943Z,40.80
2018-04-13T18:27:39.990Z,34.47
2018-04-13T18:30:08.801Z,39.33
2018-04-13T18:32:34.912Z,39.00
2018-04-13T18:35:01.758Z,38.30
2018-04-13T18:37:27.859Z,41.73
2018-04-13T18:39:54.678Z,40.33
2018-04-13T18:42:20.856Z,40.00
2018-04-13T18:44:46.896Z,41.47
2018-04-13T18:47:13.055Z,40.20
2018-04-13T18:49:39.185Z,39.20
2018-04-13T18:52:07.370Z,41.43
2018-04-13T18:54:33.404Z,39.30
2018-04-13T18:56:59.485Z,44.33
2018-04-13T18:59:26.545Z,45.47
2018-04-13T19:01:53.344Z,42.53
2018-04-13T19:04:19.399Z,40.13
2018-04-13T19:06:46.675Z,40.33
2018-04-13T19:09:12.740Z,45.60
2018-04-13T19:11:39.036Z,46.27
2018-04-13T19:14:05.828Z,42.83
2018-04-13T19:16:35.517Z,47.13
2018-04-13T19:19:03.410Z,49.67
2018-04-13T19:21:30.200Z,47.03
2018-04-13T19:23:56.246Z,47.47
2018-04-13T19:26:22.319Z,44.30
2018-04-13T19:28:48.299Z,51.37
2018-04-13T19:31:15.117Z,51.00
2018-04-13T19:33:41.130Z,48.57
2018-04-13T19:36:07.116Z,50.20
2018-04-13T19:38:34.875Z,51.57
2018-04-13T19:41:01.155Z,46.60
2018-04-13T19:43:28.131Z,45.83
2018-04-13T19:45:56.019Z,51.77
2018-04-13T19:48:22.036Z,47.47
2018-04-13T19:50:48.099Z,50.70
2018-04-13T19:53:14.185Z,44.13
2018-04-13T19:55:40.228Z,45.27
2018-04-13T19:58:06.875Z,43.03
2018-04-13T20:00:32.915Z,45.60
2018-04-13T20:03:00.376Z,42.10
2018-04-13T20:05:26.378Z,44.97
2018-04-13T20:07:53.108Z,44.10
2018-04-13T20:10:20.644Z,50.57
2018-04-13T20:12:46.639Z,45.47
2018-04-13T20:15:25.480Z,46.60
2018-04-13T20:17:51.495Z,44.37
2018-04-13T20:20:20.632Z,47.03
2018-04-13T20:22:48.063Z,46.47
2018-04-13T20:25:14.059Z,51.33
2018-04-13T20:27:40.058Z,44.87
2018-04-13T20:30:06.125Z,45.17
2018-04-13T20:32:33.589Z,43.73
2018-04-13T20:35:00.315Z,43.47
2018-04-13T20:37:27.290Z,42.30
2018-04-13T20:39:53.353Z,41.57
2018-04-13T20:42:20.366Z,42.70
2018-04-13T20:44:46.340Z,41.57
2018-04-13T20:47:12.969Z,43.93
2018-04-13T20:49:39.055Z,42.87
2018-04-13T20:52:05.090Z,41.10
2018-04-13T20:54:31.346Z,41.50
2018-04-13T20:56:58.129Z,40.47
2018-04-13T20:59:24.414Z,42.73
2018-04-13T21:01:51.212Z,43.10
2018-04-13T21:04:17.282Z,37.60
2018-04-13T21:06:43.424Z,39.17
2018-04-13T21:09:09.509Z,35.87
2018-04-13T21:11:36.321Z,37.57
2018-04-13T21:14:02.329Z,42.23
2018-04-13T21:16:28.339Z,44.67
2018-04-13T21:18:54.385Z,39.07
2018-04-13T21:21:20.400Z,44.53
2018-04-13T21:23:57.097Z,42.03
2018-04-13T21:26:23.843Z,40.63
2018-04-13T21:28:50.628Z,40.23
2018-04-13T21:34:18.710Z,41.20
2018-04-13T21:36:57.723Z,42.27
2018-04-13T21:39:38.763Z,48.20
2018-04-13T21:42:13.466Z,42.10
2018-04-13T21:44:58.213Z,45.40
2018-04-13T21:47:27.591Z,46.30
2018-04-13T21:50:07.479Z,42.83
2018-04-13T21:52:34.225Z,43.90
2018-04-13T21:55:00.950Z,45.33
2018-04-13T21:57:27.680Z,41.83
2018-04-13T21:59:53.714Z,45.80
2018-04-13T22:02:20.274Z,41.83
2018-04-13T22:04:46.249Z,44.30
2018-04-13T22:07:12.989Z,41.90
2018-04-13T22:09:39.072Z,43.47
2018-04-13T22:12:05.053Z,45.10
2018-04-13T22:14:43.443Z,41.90
2018-04-13T22:17:10.204Z,45.43
2018-04-13T22:19:36.156Z,47.03
2018-04-13T22:22:02.129Z,41.90
2018-04-13T22:24:28.842Z,43.60
2018-04-13T22:26:55.698Z,42.37
2018-04-13T22:29:23.505Z,46.73
2018-04-13T22:31:49.506Z,45.83
2018-04-13T22:34:16.037Z,47.63
2018-04-13T22:36:42.025Z,46.90
2018-04-13T22:39:08.757Z,44.53
2018-04-13T22:41:35.516Z,47.17
2018-04-13T22:44:01.498Z,43.47
2018-04-13T22:46:27.492Z,45.10
2018-04-13T22:48:53.500Z,44.60
2018-04-13T22:51:19.526Z,43.07
2018-04-13T22:53:45.526Z,45.33
2018-04-13T22:56:11.519Z,43.90
2018-04-13T22:58:38.231Z,51.27
2018-04-13T23:01:04.363Z,50.03
2018-04-13T23:03:31.142Z,50.53
2018-04-13T23:05:57.146Z,51.90
2018-04-13T23:08:23.137Z,46.13
2018-04-13T23:10:49.349Z,46.90
2018-04-13T23:13:15.347Z,48.10
2018-04-13T23:15:41.334Z,49.27
2018-04-13T23:18:08.027Z,53.10
2018-04-13T23:20:34.173Z,50.00
2018-04-13T23:23:00.156Z,52.70
2018-04-13T23:25:26.116Z,55.37
2018-04-13T23:27:52.803Z,49.70
2018-04-13T23:30:18.799Z,47.90
2018-04-13T23:32:44.799Z,48.90
2018-04-13T23:35:10.781Z,46.77
2018-04-13T23:40:12.341Z,48.90
2018-04-13T23:42:38.354Z,50.13
2018-04-13T23:45:04.312Z,49.43
2018-04-13T23:47:31.043Z,45.93
2018-04-13T23:49:57.225Z,52.00
2018-04-13T23:52:23.240Z,49.40
2018-04-13T23:54:49.258Z,49.97
2018-04-13T23:57:15.378Z,49.77
2018-04-13T23:59:41.379Z,46.37
